createdAt,value
2023-04-05T00:01:24.546Z,-1.67
2023-04-05T00:02:24.746Z,-1.56
2023-04-05T00:04:24.664Z,-1.67
2023-04-05T00:05:24.556Z,-1.56
2023-04-05T00:06:24.599Z,-1.83
2023-04-05T00:07:24.548Z,-1.56
2023-04-05T00:08:24.611Z,-1.83
2023-04-05T00:09:24.560Z,-1.67
2023-04-05T00:10:24.573Z,-1.67
2023-04-05T00:11:24.605Z,-1.83
2023-04-05T00:12:24.562Z,-2
2023-04-05T00:13:24.557Z,-2.17
2023-04-05T00:14:24.562Z,-2
2023-04-05T00:15:24.562Z,-1.83
2023-04-05T00:17:24.562Z,-2.17
2023-04-05T00:18:24.571Z,-2.44
2023-04-05T00:19:24.566Z,-2.28
2023-04-05T00:20:24.572Z,-2.44
2023-04-05T00:21:24.566Z,-2.61
2023-04-05T00:22:24.594Z,-2.28
2023-04-05T00:24:24.581Z,-2.44
2023-04-05T00:25:24.561Z,-2.17
2023-04-05T00:26:24.597Z,-2
2023-04-05T00:27:24.574Z,-2
2023-04-05T00:28:24.580Z,-2
2023-04-05T00:29:24.578Z,-2
2023-04-05T00:31:24.594Z,-2.17
2023-04-05T00:32:24.611Z,-2.28
2023-04-05T00:34:24.579Z,-2.17
2023-04-05T00:35:24.579Z,-2.28
2023-04-05T00:36:24.604Z,-1.83
2023-04-05T00:38:24.611Z,-2.17
2023-04-05T00:40:24.589Z,-2.28
2023-04-05T00:41:24.590Z,-2
2023-04-05T00:42:24.601Z,-2.28
2023-04-05T00:43:24.586Z,-2.28
2023-04-05T00:44:24.590Z,-2.61
2023-04-05T00:45:24.586Z,-2.44
2023-04-05T00:46:24.613Z,-2.28
2023-04-05T00:47:24.638Z,-2.17
2023-04-05T00:48:24.608Z,-2.17
2023-04-05T00:49:24.605Z,-2.61
2023-04-05T00:50:24.602Z,-2.44
2023-04-05T00:51:24.593Z,-2.44
2023-04-05T00:52:24.590Z,-3.06
2023-04-05T00:53:24.608Z,-2.61
2023-04-05T00:54:24.616Z,-2.61
2023-04-05T00:55:24.595Z,-2.61
2023-04-05T00:56:24.622Z,-3.17
2023-04-05T00:57:24.606Z,-2.61
2023-04-05T00:58:24.614Z,-2.61
2023-04-05T00:59:24.630Z,-2.72
2023-04-05T01:00:24.629Z,-2.89
2023-04-05T01:01:24.645Z,-2.72
2023-04-05T01:02:24.710Z,-2.89
2023-04-05T01:04:24.639Z,-2.72
2023-04-05T01:05:24.621Z,-2.89
2023-04-05T01:06:24.601Z,-3.06
2023-04-05T01:07:24.622Z,-2.89
2023-04-05T01:09:24.609Z,-2.89
2023-04-05T01:10:24.632Z,-2.89
2023-04-05T01:12:24.624Z,-2.89
2023-04-05T01:14:24.616Z,-2.89
2023-04-05T01:16:24.612Z,-2.89
2023-04-05T01:17:24.622Z,-3.28
2023-04-05T01:18:24.612Z,-2.89
2023-04-05T01:19:24.611Z,-3.06
2023-04-05T01:21:24.639Z,-3.28
2023-04-05T01:22:24.618Z,-3.06
2023-04-05T01:23:24.621Z,-3.17
2023-04-05T01:24:24.626Z,-3.28
2023-04-05T01:25:24.605Z,-3.44
2023-04-05T01:26:24.648Z,-3.17
2023-04-05T01:28:24.634Z,-3.17
2023-04-05T01:29:24.624Z,-3.17
2023-04-05T01:30:24.660Z,-3.28
2023-04-05T01:31:24.623Z,-3.17
2023-04-05T01:33:24.628Z,-3.28
2023-04-05T01:34:24.626Z,-3.17
2023-04-05T01:35:24.622Z,-3.17
2023-04-05T01:36:24.761Z,-3.06
2023-04-05T01:38:24.628Z,-3.17
2023-04-05T01:39:24.639Z,-2.89
2023-04-05T01:40:24.652Z,-3.06
2023-04-05T01:41:24.630Z,-3.28
2023-04-05T01:42:24.689Z,-3.06
2023-04-05T01:44:24.653Z,-3.06
2023-04-05T01:45:24.649Z,-3.17
2023-04-05T01:46:24.694Z,-2.72
2023-04-05T01:47:24.727Z,-2.89
2023-04-05T01:48:24.630Z,-2.89
2023-04-05T01:49:24.653Z,-3.28
2023-04-05T01:51:24.640Z,-3.06
2023-04-05T01:52:24.631Z,-3.44
2023-04-05T01:53:24.659Z,-3.28
2023-04-05T01:54:24.656Z,-3.06
2023-04-05T01:55:24.664Z,-3.06
2023-04-05T01:56:24.673Z,-3.06
2023-04-05T01:57:24.662Z,-3.06
2023-04-05T01:58:24.672Z,-3.44
2023-04-05T02:00:24.653Z,-3.44
2023-04-05T02:01:24.705Z,-3.17
2023-04-05T02:02:24.660Z,-3.44
2023-04-05T02:03:24.742Z,-3.17
2023-04-05T02:04:24.649Z,-3.61
2023-04-05T02:05:24.671Z,-3.44
2023-04-05T02:06:24.681Z,-3.28
2023-04-05T02:07:24.657Z,-3.44
2023-04-05T02:08:24.657Z,-3.61
2023-04-05T02:09:24.686Z,-3.44
2023-04-05T02:10:24.672Z,-3.44
2023-04-05T02:12:24.673Z,-3.44
2023-04-05T02:13:24.656Z,-3.28
2023-04-05T02:14:24.714Z,-3.44
2023-04-05T02:16:24.691Z,-3.61
2023-04-05T02:17:24.660Z,-3.44
2023-04-05T02:18:24.682Z,-3.17
2023-04-05T02:20:24.663Z,-3.44
2023-04-05T02:21:24.667Z,-3.28
2023-04-05T02:23:24.691Z,-3.44
2023-04-05T02:24:24.669Z,-3.61
2023-04-05T02:25:24.679Z,-3.61
2023-04-05T02:26:24.676Z,-3.72
2023-04-05T02:27:24.671Z,-3.17
2023-04-05T02:28:24.654Z,-3.44
2023-04-05T02:29:24.673Z,-3.44
2023-04-05T02:30:24.702Z,-3.61
2023-04-05T02:32:24.661Z,-3.44
2023-04-05T02:33:24.666Z,-3.28
2023-04-05T02:34:24.685Z,-3.44
2023-04-05T02:35:24.728Z,-3.28
2023-04-05T02:37:24.704Z,-3.44
2023-04-05T02:38:24.662Z,-3.61
2023-04-05T02:39:24.685Z,-3.44
2023-04-05T02:40:24.665Z,-3.61
2023-04-05T02:41:24.663Z,-3.61
2023-04-05T02:42:24.706Z,-3.61
2023-04-05T02:43:24.686Z,-3.61
2023-04-05T02:44:24.674Z,-3.89
2023-04-05T02:45:24.689Z,-3.89
2023-04-05T02:46:24.821Z,-4.06
2023-04-05T02:47:24.681Z,-4.06
2023-04-05T02:48:24.671Z,-4.33
2023-04-05T02:49:24.671Z,-4.33
2023-04-05T02:50:24.665Z,-4.33
2023-04-05T02:51:24.689Z,-4.33
2023-04-05T02:52:24.659Z,-4.22
2023-04-05T02:53:24.670Z,-4.22
2023-04-05T02:54:24.678Z,-4.22
2023-04-05T02:55:24.664Z,-4.06
2023-04-05T02:56:24.694Z,-4.06
2023-04-05T02:57:24.695Z,-4.06
2023-04-05T02:59:24.739Z,-4.06
2023-04-05T03:00:24.672Z,-4.33
2023-04-05T03:01:24.738Z,-4.5
2023-04-05T03:02:24.712Z,-4.33
2023-04-05T03:04:24.685Z,-4.33
2023-04-05T03:05:24.685Z,-4.33
2023-04-05T03:06:24.675Z,-4.33
2023-04-05T03:07:24.713Z,-4.33
2023-04-05T03:08:24.685Z,-4.22
2023-04-05T03:09:24.683Z,-4.33
2023-04-05T03:11:24.704Z,-4.5
2023-04-05T03:12:24.685Z,-4.33
2023-04-05T03:13:24.704Z,-4.33
2023-04-05T03:14:24.695Z,-4.33
2023-04-05T03:15:24.692Z,-4.33
2023-04-05T03:16:24.774Z,-4.33
2023-04-05T03:18:24.732Z,-4.94
2023-04-05T03:19:24.704Z,-4.94
2023-04-05T03:20:24.703Z,-4.61
2023-04-05T03:21:24.744Z,-4.33
2023-04-05T03:22:24.704Z,-4.06
2023-04-05T03:23:24.710Z,-4.22
2023-04-05T03:24:24.704Z,-4.22
2023-04-05T03:25:24.722Z,-4.33
2023-04-05T03:27:24.714Z,-4.33
2023-04-05T03:28:24.716Z,-4.5
2023-04-05T03:29:24.719Z,-4.5
2023-04-05T03:31:24.780Z,-4.61
2023-04-05T03:32:24.740Z,-4.06
2023-04-05T03:33:24.721Z,-3.89
2023-04-05T03:34:24.755Z,-3.89
2023-04-05T03:36:24.752Z,-4.5
2023-04-05T03:38:24.739Z,-4.61
2023-04-05T03:39:24.724Z,-4.78
2023-04-05T03:40:24.753Z,-4.33
2023-04-05T03:42:24.730Z,-4.22
2023-04-05T03:43:24.728Z,-4.06
2023-04-05T03:44:24.739Z,-4.33
2023-04-05T03:46:24.757Z,-4.33
2023-04-05T03:47:24.790Z,-4.22
2023-04-05T03:48:24.736Z,-4.5
2023-04-05T03:49:24.738Z,-4.78
2023-04-05T03:50:24.760Z,-4.78
2023-04-05T03:51:24.724Z,-4.5
2023-04-05T03:52:24.755Z,-4.22
2023-04-05T03:53:24.752Z,-4.33
2023-04-05T03:54:24.732Z,-4.06
2023-04-05T03:55:24.741Z,-4.33
2023-04-05T03:56:24.748Z,-4.06
2023-04-05T03:57:24.741Z,-4.06
2023-04-05T03:58:24.745Z,-3.89
2023-04-05T03:59:24.777Z,-3.72
2023-04-05T04:00:24.848Z,-4.22
2023-04-05T04:01:24.754Z,-4.33
2023-04-05T04:02:24.863Z,-4.5
2023-04-05T04:03:24.754Z,-4.5
2023-04-05T04:04:24.771Z,-4.78
2023-04-05T04:06:24.799Z,-5.06
2023-04-05T04:08:24.754Z,-5.06
2023-04-05T04:09:24.774Z,-5.22
2023-04-05T04:11:24.792Z,-5.22
2023-04-05T04:12:24.756Z,-5.06
2023-04-05T04:13:24.768Z,-4.78
2023-04-05T04:15:24.763Z,-5.39
2023-04-05T04:16:26.106Z,-5.22
2023-04-05T04:17:24.818Z,-5.39
2023-04-05T04:18:24.767Z,-5.39
2023-04-05T04:20:24.780Z,-5.06
2023-04-05T04:22:24.798Z,-5.22
2023-04-05T04:24:24.781Z,-4.78
2023-04-05T04:26:24.776Z,-4.61
2023-04-05T04:27:24.789Z,-4.78
2023-04-05T04:28:24.781Z,-4.78
2023-04-05T04:30:24.802Z,-5.06
2023-04-05T04:31:24.809Z,-4.78
2023-04-05T04:32:24.786Z,-5.39
2023-04-05T04:34:24.793Z,-5.56
2023-04-05T04:35:24.942Z,-5.39
2023-04-05T04:36:24.796Z,-5.56
2023-04-05T04:37:24.805Z,-5.72
2023-04-05T04:38:24.808Z,-6
2023-04-05T04:40:24.797Z,-6.11
2023-04-05T04:42:24.799Z,-6
2023-04-05T04:43:24.796Z,-6
2023-04-05T04:44:24.801Z,-5.72
2023-04-05T04:46:24.820Z,-5.72
2023-04-05T04:47:24.870Z,-6
2023-04-05T04:48:24.803Z,-5.83
2023-04-05T04:49:24.797Z,-6.11
2023-04-05T04:50:24.820Z,-5.72
2023-04-05T04:52:24.807Z,-5.72
2023-04-05T04:53:24.811Z,-5.83
2023-04-05T04:54:25.011Z,-5.72
2023-04-05T04:55:24.805Z,-5.83
2023-04-05T04:56:24.805Z,-5.39
2023-04-05T04:57:24.809Z,-4.94
2023-04-05T04:58:24.808Z,-4.61
2023-04-05T04:59:24.834Z,-4.5
2023-04-05T05:00:24.823Z,-4.61
2023-04-05T05:02:24.829Z,-4.61
2023-04-05T05:04:24.849Z,-4.61
2023-04-05T05:05:24.815Z,-4.78
2023-04-05T05:06:24.821Z,-4.78
2023-04-05T05:07:24.831Z,-5.06
2023-04-05T05:08:24.807Z,-5.06
2023-04-05T05:09:24.833Z,-5.06
2023-04-05T05:10:24.849Z,-5.06
2023-04-05T05:11:24.819Z,-5.06
2023-04-05T05:12:24.849Z,-5.39
2023-04-05T05:13:24.876Z,-5.06
2023-04-05T05:14:24.851Z,-5.39
2023-04-05T05:15:24.829Z,-5.22
2023-04-05T05:16:24.829Z,-5.22
2023-04-05T05:17:24.933Z,-5.22
2023-04-05T05:18:24.834Z,-5.56
2023-04-05T05:19:24.832Z,-5.39
2023-04-05T05:20:24.841Z,-5.22
2023-04-05T05:21:24.857Z,-5.22
2023-04-05T05:22:24.840Z,-5.22
2023-04-05T05:23:24.863Z,-5.22
2023-04-05T05:24:24.857Z,-5.22
2023-04-05T05:26:24.866Z,-4.78
2023-04-05T05:27:24.836Z,-4.78
2023-04-05T05:28:24.854Z,-4.94
2023-04-05T05:29:24.851Z,-4.5
2023-04-05T05:30:24.848Z,-4.78
2023-04-05T05:32:24.853Z,-4.61
2023-04-05T05:33:24.853Z,-4.22
2023-04-05T05:34:24.861Z,-4.33
2023-04-05T05:35:24.863Z,-4.33
2023-04-05T05:36:24.848Z,-4.33
2023-04-05T05:37:24.851Z,-4.5
2023-04-05T05:38:24.869Z,-4.78
2023-04-05T05:40:24.842Z,-4.33
2023-04-05T05:41:24.840Z,-4.06
2023-04-05T05:42:24.874Z,-4.33
2023-04-05T05:44:24.856Z,-4.06
2023-04-05T05:45:24.850Z,-4.22
2023-04-05T05:46:24.856Z,-3.89
2023-04-05T05:47:24.870Z,-3.44
2023-04-05T05:49:24.852Z,-3.61
2023-04-05T05:50:24.866Z,-3.44
2023-04-05T05:51:24.844Z,-3.44
2023-04-05T05:52:24.850Z,-3.44
2023-04-05T05:53:24.867Z,-3.28
2023-04-05T05:54:24.851Z,-3.61
2023-04-05T05:55:24.856Z,-3.44
2023-04-05T05:56:24.895Z,-3.28
2023-04-05T05:58:24.893Z,-3.17
2023-04-05T05:59:24.907Z,-2.72
2023-04-05T06:00:24.865Z,-2.72
2023-04-05T06:01:24.858Z,-2.61
2023-04-05T06:02:24.901Z,-3.06
2023-04-05T06:04:24.990Z,-1
2023-04-05T06:05:24.885Z,-0.17
2023-04-05T06:06:24.893Z,-0.28
2023-04-05T06:08:24.867Z,1.5
2023-04-05T06:10:24.872Z,1.06
2023-04-05T06:12:26.005Z,0.78
2023-04-05T06:13:24.878Z,1.06
2023-04-05T06:14:25.143Z,1.5
2023-04-05T06:16:24.940Z,1.78
2023-04-05T06:17:24.894Z,1.89
2023-04-05T06:19:24.868Z,2.06
2023-04-05T06:20:24.884Z,2.89
2023-04-05T06:21:24.881Z,3.22
2023-04-05T06:23:24.885Z,2.17
2023-04-05T06:25:24.879Z,1.89
2023-04-05T06:26:24.878Z,1.5
2023-04-05T06:27:24.885Z,1.67
2023-04-05T06:29:24.887Z,4.06
2023-04-05T06:30:24.913Z,4.5
2023-04-05T06:32:24.911Z,5.61
2023-04-05T06:33:24.901Z,5.89
2023-04-05T06:34:24.880Z,5.89
2023-04-05T06:36:26.949Z,6.17
2023-04-05T06:37:24.886Z,4.5
2023-04-05T06:38:24.894Z,4.06
2023-04-05T06:39:24.885Z,4.33
2023-04-05T06:40:24.895Z,5.06
2023-04-05T06:41:24.920Z,5.78
2023-04-05T06:42:25.898Z,5.89
2023-04-05T06:43:24.901Z,5.61
2023-04-05T06:44:24.885Z,6.06
2023-04-05T06:45:24.893Z,6.06
2023-04-05T06:46:25.076Z,6.61
2023-04-05T06:47:24.893Z,6.5
2023-04-05T06:48:24.900Z,6.61
2023-04-05T06:49:24.902Z,5.89
2023-04-05T06:50:24.897Z,5.5
2023-04-05T06:51:24.912Z,5.89
2023-04-05T06:52:24.886Z,7.06
2023-04-05T06:53:24.903Z,5.78
2023-04-05T06:55:24.902Z,6.5
2023-04-05T06:56:24.902Z,5.78
2023-04-05T06:57:24.904Z,5.78
2023-04-05T06:58:24.895Z,6.17
2023-04-05T06:59:24.981Z,6.5
2023-04-05T07:00:24.908Z,7.06
2023-04-05T07:01:24.989Z,6.5
2023-04-05T07:02:24.968Z,6.94
2023-04-05T07:04:24.997Z,7.06
2023-04-05T07:05:24.926Z,6.5
2023-04-05T07:06:24.913Z,7.22
2023-04-05T07:08:24.905Z,6.61
2023-04-05T07:09:24.912Z,5.89
2023-04-05T07:10:24.915Z,6.17
2023-04-05T07:11:24.924Z,5.61
2023-04-05T07:12:24.909Z,5.61
2023-04-05T07:14:24.905Z,5.39
2023-04-05T07:15:24.923Z,5.06
2023-04-05T07:17:24.928Z,4.33
2023-04-05T07:18:24.939Z,3.78
2023-04-05T07:19:24.918Z,3.61
2023-04-05T07:20:24.908Z,3.61
2023-04-05T07:21:24.929Z,2.5
2023-04-05T07:22:24.927Z,3.06
2023-04-05T07:23:24.913Z,2.61
2023-04-05T07:24:24.915Z,2.5
2023-04-05T07:25:24.905Z,2.5
2023-04-05T07:26:24.912Z,2.33
2023-04-05T07:27:24.930Z,1.89
2023-04-05T07:28:24.916Z,1.67
2023-04-05T07:29:24.912Z,1.78
2023-04-05T07:30:24.913Z,2.06
2023-04-05T07:31:24.910Z,2.17
2023-04-05T07:33:24.922Z,2
2023-04-05T07:34:24.963Z,2
2023-04-05T07:36:24.926Z,1.72
2023-04-05T07:37:24.918Z,1.89
2023-04-05T07:39:24.911Z,2.78
2023-04-05T07:40:24.909Z,2.78
2023-04-05T07:41:24.923Z,3.28
2023-04-05T07:42:24.918Z,2.72
2023-04-05T07:43:24.914Z,3
2023-04-05T07:45:24.914Z,3.17
2023-04-05T07:46:24.927Z,3.17
2023-04-05T07:48:24.916Z,3.33
2023-04-05T07:50:24.945Z,2.72
2023-04-05T07:52:24.915Z,2.72
2023-04-05T07:53:24.921Z,2.72
2023-04-05T07:55:24.924Z,2.72
2023-04-05T07:56:24.908Z,2.72
2023-04-05T07:57:24.932Z,2.89
2023-04-05T07:58:24.921Z,3
2023-04-05T07:59:24.959Z,3
2023-04-05T08:00:24.925Z,2.89
2023-04-05T08:02:24.936Z,3
2023-04-05T08:03:25.018Z,1.89
2023-04-05T08:05:25.061Z,1.89
2023-04-05T08:06:25.011Z,2.17
2023-04-05T08:08:24.944Z,1.89
2023-04-05T08:09:24.958Z,2
2023-04-05T08:11:24.936Z,1.72
2023-04-05T08:12:24.977Z,1.5
2023-04-05T08:13:24.971Z,3
2023-04-05T08:14:24.936Z,2.72
2023-04-05T08:15:24.938Z,2.89
2023-04-05T08:16:24.963Z,2.17
2023-04-05T08:18:24.951Z,2.28
2023-04-05T08:19:24.935Z,2.28
2023-04-05T08:20:24.954Z,2.44
2023-04-05T08:22:24.965Z,2.44
2023-04-05T08:24:24.965Z,1.72
2023-04-05T08:25:24.962Z,2.17
2023-04-05T08:26:24.963Z,1.89
2023-04-05T08:27:24.960Z,1.89
2023-04-05T08:28:24.971Z,2
2023-04-05T08:29:24.961Z,1.61
2023-04-05T08:30:24.955Z,1.72
2023-04-05T08:31:24.978Z,1.89
2023-04-05T08:33:24.952Z,1.72
2023-04-05T08:34:24.968Z,1.33
2023-04-05T08:36:24.960Z,1.89
2023-04-05T08:38:24.998Z,1.72
2023-04-05T08:40:24.957Z,1.72
2023-04-05T08:41:24.966Z,1.89
2023-04-05T08:42:24.964Z,1.89
2023-04-05T08:43:24.976Z,2.17
2023-04-05T08:44:24.954Z,1.72
2023-04-05T08:45:24.976Z,2.17
2023-04-05T08:47:25.028Z,2.61
2023-04-05T08:48:24.969Z,2.17
2023-04-05T08:49:24.985Z,2.72
2023-04-05T08:50:24.983Z,2.61
2023-04-05T08:51:24.987Z,2.61
2023-04-05T08:52:24.974Z,2.28
2023-04-05T08:54:25.004Z,1.89
2023-04-05T08:56:24.979Z,2.61
2023-04-05T08:57:24.999Z,3.44
2023-04-05T08:59:25.004Z,4
2023-04-05T09:00:24.980Z,3.83
2023-04-05T09:01:25.014Z,4.89
2023-04-05T09:02:25.056Z,5.17
2023-04-05T09:03:25.067Z,4.89
2023-04-05T09:04:25.004Z,3.33
2023-04-05T09:06:24.991Z,3
2023-04-05T09:07:25.003Z,2.44
2023-04-05T09:09:24.994Z,2.44
2023-04-05T09:10:25.030Z,2.28
2023-04-05T09:12:25.013Z,2
2023-04-05T09:13:25.001Z,2.61
2023-04-05T09:14:24.994Z,2.17
2023-04-05T09:15:24.995Z,2
2023-04-05T09:16:25.004Z,2.17
2023-04-05T09:17:25.008Z,1.89
2023-04-05T09:18:27.155Z,2.44
2023-04-05T09:19:24.999Z,2.89
2023-04-05T09:20:25.013Z,3.33
2023-04-05T09:22:25.005Z,3.72
2023-04-05T09:24:25.029Z,4.44
2023-04-05T09:25:24.997Z,4.28
2023-04-05T09:26:25.028Z,4.72
2023-04-05T09:28:25.014Z,3.33
2023-04-05T09:29:25.001Z,3.56
2023-04-05T09:30:25.015Z,2.89
2023-04-05T09:32:25.064Z,3
2023-04-05T09:33:25.008Z,3.83
2023-04-05T09:34:25.011Z,5
2023-04-05T09:35:25.013Z,5.33
2023-04-05T09:36:25.018Z,5.61
2023-04-05T09:37:25.022Z,3.72
2023-04-05T09:38:25.006Z,3.11
2023-04-05T09:39:25.013Z,3.17
2023-04-05T09:40:25.035Z,4.22
2023-04-05T09:42:25.057Z,4.28
2023-04-05T09:43:25.016Z,5
2023-04-05T09:44:25.018Z,4.56
2023-04-05T09:45:25.028Z,5.83
2023-04-05T09:47:25.136Z,5.17
2023-04-05T09:48:25.024Z,4.89
2023-04-05T09:49:25.027Z,4.72
2023-04-05T09:50:25.028Z,4.44
2023-04-05T09:51:25.036Z,4.72
2023-04-05T09:53:25.038Z,3.94
2023-04-05T09:55:25.040Z,4.5
2023-04-05T09:56:25.045Z,6
2023-04-05T09:57:25.028Z,6.83
2023-04-05T09:58:25.080Z,6.39
2023-04-05T10:00:25.049Z,7.44
2023-04-05T10:01:25.090Z,7.89
2023-04-05T10:02:25.319Z,7.72
2023-04-05T10:03:25.143Z,7.44
2023-04-05T10:04:25.055Z,6.72
2023-04-05T10:05:25.024Z,7.22
2023-04-05T10:06:25.038Z,6.83
2023-04-05T10:08:25.028Z,5.11
2023-04-05T10:09:25.034Z,4.83
2023-04-05T10:10:25.031Z,4.94
2023-04-05T10:11:25.065Z,5.78
2023-04-05T10:12:25.033Z,5.78
2023-04-05T10:13:25.051Z,5.78
2023-04-05T10:14:25.072Z,4.94
2023-04-05T10:16:25.073Z,4.5
2023-04-05T10:17:25.082Z,4.5
2023-04-05T10:18:25.050Z,4.94
2023-04-05T10:19:25.049Z,4.94
2023-04-05T10:20:25.053Z,4.94
2023-04-05T10:21:25.051Z,4.94
2023-04-05T10:23:25.066Z,3.67
2023-04-05T10:25:25.058Z,4.39
2023-04-05T10:26:25.056Z,4.11
2023-04-05T10:27:25.061Z,4.11
2023-04-05T10:28:25.102Z,3.94
2023-04-05T10:30:25.135Z,4.94
2023-04-05T10:31:36.791Z,4.5
2023-04-05T10:32:25.227Z,4.22
2023-04-05T10:34:25.109Z,5.56
2023-04-05T10:35:25.052Z,4.94
2023-04-05T10:36:25.098Z,5.39
2023-04-05T10:37:25.106Z,4.94
2023-04-05T10:38:25.076Z,5.78
2023-04-05T10:39:25.052Z,5.67
2023-04-05T10:40:25.064Z,5.94
2023-04-05T10:41:25.056Z,5.39
2023-04-05T10:42:25.118Z,5.39
2023-04-05T10:43:25.062Z,5.78
2023-04-05T10:44:26.875Z,6.22
2023-04-05T10:45:25.120Z,7.5
2023-04-05T10:46:25.152Z,8.11
2023-04-05T10:47:25.112Z,7.5
2023-04-05T10:48:25.084Z,7.11
2023-04-05T10:49:25.065Z,6.78
2023-04-05T10:50:25.104Z,7.5
2023-04-05T10:51:25.084Z,8.39
2023-04-05T10:52:25.087Z,8.78
2023-04-05T10:54:25.124Z,7.78
2023-04-05T10:55:25.082Z,7.94
2023-04-05T10:57:25.104Z,9.22
2023-04-05T10:58:25.076Z,8.61
2023-04-05T10:59:25.124Z,8.78
2023-04-05T11:01:25.130Z,9.06
2023-04-05T11:02:25.137Z,7.39
2023-04-05T11:04:25.217Z,6.5
2023-04-05T11:05:25.100Z,6.5
2023-04-05T11:06:25.091Z,6.06
2023-04-05T11:07:25.072Z,5.39
2023-04-05T11:08:25.096Z,5.56
2023-04-05T11:09:25.112Z,6.22
2023-04-05T11:11:25.155Z,6.22
2023-04-05T11:12:25.138Z,7.11
2023-04-05T11:13:25.112Z,7.39
2023-04-05T11:15:25.115Z,7.67
2023-04-05T11:17:25.120Z,6.78
2023-04-05T11:18:25.170Z,6.94
2023-04-05T11:20:25.107Z,9.22
2023-04-05T11:22:25.112Z,9.06
2023-04-05T11:23:25.420Z,9.22
2023-04-05T11:25:25.132Z,7.5
2023-04-05T11:26:25.119Z,6.78
2023-04-05T11:28:25.114Z,6.67
2023-04-05T11:30:25.114Z,5.67
2023-04-05T11:31:25.183Z,6.67
2023-04-05T11:32:25.192Z,7.5
2023-04-05T11:33:25.125Z,7.94
2023-04-05T11:34:25.345Z,7.5
2023-04-05T11:36:25.122Z,6.94
2023-04-05T11:37:25.113Z,6.5
2023-04-05T11:38:25.155Z,5.5
2023-04-05T11:39:25.134Z,6.33
2023-04-05T11:40:25.136Z,7.22
2023-04-05T11:42:25.124Z,7.5
2023-04-05T11:43:25.152Z,7.11
2023-04-05T11:44:25.132Z,6.89
2023-04-05T11:46:25.282Z,8.28
2023-04-05T11:47:25.134Z,8.11
2023-04-05T11:49:25.131Z,7.17
2023-04-05T11:50:25.150Z,7.17
2023-04-05T11:51:25.129Z,7.61
2023-04-05T11:52:25.143Z,6.89
2023-04-05T11:53:25.135Z,7.33
2023-04-05T11:54:25.153Z,6.72
2023-04-05T11:55:25.144Z,7.72
2023-04-05T11:56:25.133Z,8.17
2023-04-05T11:57:25.171Z,6.89
2023-04-05T11:58:25.124Z,8.17
2023-04-05T11:59:25.158Z,7.61
2023-04-05T12:00:25.149Z,7.33
2023-04-05T12:01:25.149Z,7.89
2023-04-05T12:03:25.218Z,7.89
2023-04-05T12:04:25.219Z,7.33
2023-04-05T12:05:25.135Z,8.33
2023-04-05T12:06:25.163Z,9.28
2023-04-05T12:08:25.157Z,9
2023-04-05T12:09:25.150Z,8
2023-04-05T12:11:25.148Z,7.33
2023-04-05T12:12:25.143Z,6.89
2023-04-05T12:13:25.134Z,7.33
2023-04-05T12:14:25.153Z,8.33
2023-04-05T12:15:25.146Z,8.61
2023-04-05T12:16:25.162Z,9.17
2023-04-05T12:18:25.152Z,8.33
2023-04-05T12:19:25.146Z,7.89
2023-04-05T12:20:25.144Z,7.72
2023-04-05T12:21:25.158Z,7
2023-04-05T12:22:25.176Z,7.33
2023-04-05T12:24:25.147Z,7.72
2023-04-05T12:25:25.161Z,7.89
2023-04-05T12:26:25.155Z,7.17
2023-04-05T12:28:25.172Z,7.61
2023-04-05T12:29:25.157Z,7.33
2023-04-05T12:30:25.213Z,7.61
2023-04-05T12:31:25.177Z,7.44
2023-04-05T12:33:25.158Z,7.17
2023-04-05T12:35:25.154Z,7.61
2023-04-05T12:36:25.210Z,7.44
2023-04-05T12:37:25.151Z,7.72
2023-04-05T12:38:25.181Z,8.17
2023-04-05T12:39:25.162Z,7.33
2023-04-05T12:40:25.155Z,7.89
2023-04-05T12:41:25.160Z,7.89
2023-04-05T12:42:25.172Z,8
2023-04-05T12:43:25.166Z,8.61
2023-04-05T12:45:25.181Z,8.44
2023-04-05T12:46:25.207Z,7.72
2023-04-05T12:47:25.201Z,8.17
2023-04-05T12:49:25.187Z,8.17
2023-04-05T12:50:25.173Z,8.33
2023-04-05T12:52:25.174Z,8
2023-04-05T12:53:25.201Z,8.83
2023-04-05T12:54:25.191Z,7.72
2023-04-05T12:56:25.176Z,8.17
2023-04-05T12:57:25.163Z,8.17
2023-04-05T12:58:25.174Z,8.33
2023-04-05T12:59:25.200Z,7.61
2023-04-05T13:00:25.185Z,7.17
2023-04-05T13:01:25.192Z,7.72
2023-04-05T13:02:25.281Z,7.72
2023-04-05T13:03:25.294Z,7.61
2023-04-05T13:04:25.182Z,7.33
2023-04-05T13:05:25.190Z,7.72
2023-04-05T13:07:25.180Z,8.61
2023-04-05T13:08:25.197Z,8.33
2023-04-05T13:09:25.178Z,8.17
2023-04-05T13:10:25.230Z,8
2023-04-05T13:12:25.191Z,7.72
2023-04-05T13:13:25.197Z,7.72
2023-04-05T13:15:25.182Z,7.72
2023-04-05T13:16:25.277Z,7.72
2023-04-05T13:18:25.187Z,7.44
2023-04-05T13:19:25.188Z,7.72
2023-04-05T13:20:25.195Z,8.44
2023-04-05T13:21:25.185Z,7.89
2023-04-05T13:22:25.201Z,7.89
2023-04-05T13:24:25.198Z,7.72
2023-04-05T13:25:25.200Z,7.72
2023-04-05T13:26:25.237Z,7.44
2023-04-05T13:28:25.204Z,7.89
2023-04-05T13:30:25.201Z,8
2023-04-05T13:31:25.255Z,8.17
2023-04-05T13:32:25.213Z,8.67
2023-04-05T13:33:25.204Z,8.33
2023-04-05T13:35:25.232Z,8.44
2023-04-05T13:36:25.210Z,8.83
2023-04-05T13:37:25.194Z,8.17
2023-04-05T13:38:25.205Z,7.72
2023-04-05T13:39:25.189Z,8
2023-04-05T13:40:25.196Z,8.67
2023-04-05T13:42:25.225Z,8.83
2023-04-05T13:44:25.190Z,8.33
2023-04-05T13:45:25.227Z,8.61
2023-04-05T13:46:25.296Z,7.72
2023-04-05T13:47:25.204Z,7.72
2023-04-05T13:48:25.215Z,9
2023-04-05T13:50:25.216Z,8.17
2023-04-05T13:51:25.194Z,7.89
2023-04-05T13:52:25.206Z,8.33
2023-04-05T13:53:26.643Z,8.44
2023-04-05T13:54:25.206Z,8.44
2023-04-05T13:55:25.215Z,8.83
2023-04-05T13:57:25.205Z,8.17
2023-04-05T13:58:25.239Z,7.72
2023-04-05T14:00:25.269Z,9.44
2023-04-05T14:01:25.247Z,9
2023-04-05T14:02:25.229Z,7.72
2023-04-05T14:04:25.211Z,8.61
2023-04-05T14:06:25.226Z,8
2023-04-05T14:08:25.219Z,8.17
2023-04-05T14:09:25.201Z,7.72
2023-04-05T14:10:25.207Z,8.17
2023-04-05T14:12:25.217Z,8.17
2023-04-05T14:13:25.209Z,8.61
2023-04-05T14:14:25.242Z,8.44
2023-04-05T14:15:25.226Z,9
2023-04-05T14:16:25.258Z,8.67
2023-04-05T14:17:25.219Z,8
2023-04-05T14:18:25.205Z,8.61
2023-04-05T14:20:25.232Z,9
2023-04-05T14:21:25.210Z,9
2023-04-05T14:23:25.217Z,8.83
2023-04-05T14:24:25.223Z,8.61
2023-04-05T14:26:25.224Z,9.17
2023-04-05T14:27:25.213Z,9
2023-04-05T14:28:25.215Z,8.44
2023-04-05T14:29:25.209Z,8.17
2023-04-05T14:30:25.236Z,8
2023-04-05T14:31:25.252Z,7.72
2023-04-05T14:32:25.280Z,7.72
2023-04-05T14:33:25.227Z,8.61
2023-04-05T14:34:25.207Z,8.83
2023-04-05T14:35:25.245Z,8.83
2023-04-05T14:36:25.208Z,8.61
2023-04-05T14:37:25.216Z,8.17
2023-04-05T14:38:25.221Z,8.44
2023-04-05T14:39:25.210Z,8.44
2023-04-05T14:40:25.258Z,8
2023-04-05T14:41:25.221Z,8.33
2023-04-05T14:42:31.453Z,8.61
2023-04-05T14:44:25.215Z,9.44
2023-04-05T14:45:25.333Z,9.28
2023-04-05T14:46:25.317Z,9.28
2023-04-05T14:48:25.207Z,9.44
2023-04-05T14:49:25.213Z,10.33
2023-04-05T14:51:25.214Z,10.33
2023-04-05T14:53:25.217Z,10.61
2023-04-05T14:54:25.214Z,10.61
2023-04-05T14:56:25.225Z,10.72
2023-04-05T14:57:25.222Z,11.06
2023-04-05T14:59:25.257Z,10.17
2023-04-05T15:00:25.224Z,10.33
2023-04-05T15:01:25.264Z,10.72
2023-04-05T15:02:25.299Z,11.06
2023-04-05T15:04:25.224Z,9.72
2023-04-05T15:05:25.236Z,10
2023-04-05T15:06:25.241Z,9.56
2023-04-05T15:07:25.223Z,9.89
2023-04-05T15:08:25.227Z,10.33
2023-04-05T15:09:25.230Z,10.89
2023-04-05T15:10:25.228Z,10.33
2023-04-05T15:11:25.244Z,9.89
2023-04-05T15:13:25.227Z,9.89
2023-04-05T15:14:32.021Z,9.44
2023-04-05T15:15:25.234Z,9.72
2023-04-05T15:16:25.283Z,11.06
2023-04-05T15:18:25.271Z,10.61
2023-04-05T15:19:25.227Z,10.61
2023-04-05T15:20:25.253Z,10.33
2023-04-05T15:22:25.246Z,10.17
2023-04-05T15:23:25.256Z,10
2023-04-05T15:24:25.250Z,10.33
2023-04-05T15:25:25.248Z,9.89
2023-04-05T15:26:25.243Z,9.89
2023-04-05T15:27:25.250Z,10.33
2023-04-05T15:29:25.241Z,10.33
2023-04-05T15:30:25.240Z,10.17
2023-04-05T15:31:25.250Z,10.33
2023-04-05T15:32:25.256Z,10.72
2023-04-05T15:33:25.282Z,10.72
2023-04-05T15:34:25.283Z,9.28
2023-04-05T15:35:25.263Z,9.28
2023-04-05T15:36:25.247Z,9.56
2023-04-05T15:37:25.254Z,9.28
2023-04-05T15:38:25.253Z,9.17
2023-04-05T15:39:25.291Z,9.56
2023-04-05T15:40:25.268Z,9.17
2023-04-05T15:41:25.250Z,9
2023-04-05T15:42:25.250Z,9.72
2023-04-05T15:43:25.255Z,9.28
2023-04-05T15:44:25.250Z,9.72
2023-04-05T15:45:25.276Z,9
2023-04-05T15:46:25.300Z,8.33
2023-04-05T15:48:25.268Z,9.17
2023-04-05T15:50:25.299Z,9.17
2023-04-05T15:51:25.257Z,9.44
2023-04-05T15:52:25.270Z,9.44
2023-04-05T15:53:25.258Z,8.61
2023-04-05T15:54:25.265Z,8.44
2023-04-05T15:55:25.272Z,8.33
2023-04-05T15:57:25.273Z,7.17
2023-04-05T15:58:25.264Z,7.33
2023-04-05T15:59:25.336Z,8.33
2023-04-05T16:00:25.269Z,8.17
2023-04-05T16:01:25.280Z,8.17
2023-04-05T16:02:25.381Z,7.89
2023-04-05T16:04:25.297Z,8.67
2023-04-05T16:05:25.281Z,8.44
2023-04-05T16:06:25.296Z,8
2023-04-05T16:08:25.298Z,8
2023-04-05T16:09:25.275Z,8
2023-04-05T16:10:25.304Z,8.33
2023-04-05T16:11:25.286Z,9
2023-04-05T16:13:25.291Z,8.67
2023-04-05T16:15:25.299Z,8.44